createdAt,value
2023-05-21T00:01:03.167Z,73.55
2023-05-21T00:04:08.884Z,73.97
2023-05-21T00:07:12.638Z,73.66
2023-05-21T00:10:15.130Z,74.16
2023-05-21T00:13:17.613Z,73.85
2023-05-21T00:16:20.026Z,73.96
2023-05-21T00:19:22.634Z,74.93
2023-05-21T00:22:25.160Z,75.57
2023-05-21T00:25:27.573Z,75.90
2023-05-21T00:28:29.991Z,75.73
2023-05-21T00:31:32.385Z,76.78
2023-05-21T00:34:36.349Z,76.55
2023-05-21T00:37:38.893Z,76.87
2023-05-21T00:40:41.448Z,76.23
2023-05-21T00:43:44.696Z,76.18
2023-05-21T00:46:49.007Z,76.49
2023-05-21T00:49:53.394Z,76.63
2023-05-21T00:52:56.637Z,77.06
2023-05-21T00:55:59.168Z,78.38
2023-05-21T00:59:05.538Z,78.22
2023-05-21T01:02:09.609Z,78.00
2023-05-21T01:05:12.250Z,77.82
2023-05-21T01:08:15.222Z,78.14
2023-05-21T01:11:18.820Z,77.82
2023-05-21T01:14:24.257Z,77.53
2023-05-21T01:17:28.449Z,77.86
2023-05-21T01:20:32.316Z,77.29
2023-05-21T01:23:34.810Z,77.93
2023-05-21T01:26:39.755Z,77.82
2023-05-21T01:29:42.543Z,78.48
2023-05-21T01:33:04.162Z,76.87
2023-05-21T01:36:24.174Z,77.67
2023-05-21T01:39:32.537Z,77.70
2023-05-21T01:42:38.358Z,77.69
2023-05-21T01:45:43.764Z,77.62
2023-05-21T01:48:47.342Z,79.00
2023-05-21T01:51:50.065Z,78.80
2023-05-21T01:54:54.392Z,79.29
2023-05-21T01:57:57.134Z,81.75
2023-05-21T02:00:59.742Z,79.24
2023-05-21T02:04:02.203Z,78.88
2023-05-21T02:07:04.835Z,78.14
2023-05-21T02:10:07.927Z,79.09
2023-05-21T02:13:10.627Z,80.24
2023-05-21T02:16:14.773Z,81.06
2023-05-21T02:19:17.764Z,79.92
2023-05-21T02:22:20.275Z,79.72
2023-05-21T02:25:22.826Z,79.26
2023-05-21T02:28:25.477Z,83.63
2023-05-21T02:31:27.902Z,85.18
2023-05-21T02:34:35.080Z,85.54
2023-05-21T02:37:38.010Z,84.43
2023-05-21T02:40:40.531Z,85.47
2023-05-21T02:43:43.763Z,86.36
2023-05-21T02:46:46.594Z,87.49
2023-05-21T02:49:51.541Z,88.70
2023-05-21T02:52:53.997Z,88.46
2023-05-21T02:55:56.670Z,85.54
2023-05-21T02:58:59.047Z,85.88
2023-05-21T03:02:01.649Z,85.40
2023-05-21T03:05:05.305Z,85.50
2023-05-21T03:08:09.200Z,86.47
2023-05-21T03:11:11.620Z,85.50
2023-05-21T03:14:14.564Z,85.82
2023-05-21T03:17:18.095Z,86.50
2023-05-21T03:20:20.506Z,87.04
2023-05-21T03:23:23.436Z,87.75
2023-05-21T03:26:32.512Z,87.47
2023-05-21T03:29:36.213Z,87.47
2023-05-21T03:32:41.446Z,88.29
2023-05-21T03:35:44.462Z,88.40
2023-05-21T03:38:46.952Z,87.90
2023-05-21T03:41:49.374Z,88.39
2023-05-21T03:44:59.077Z,87.78
2023-05-21T03:48:21.487Z,87.40
2023-05-21T03:51:24.912Z,86.69
2023-05-21T03:54:27.718Z,87.32
2023-05-21T03:57:34.538Z,87.18
2023-05-21T04:00:40.675Z,87.89
2023-05-21T04:03:43.477Z,88.18
2023-05-21T04:06:46.445Z,87.83
2023-05-21T04:09:48.850Z,87.92
2023-05-21T04:12:52.482Z,87.50
2023-05-21T04:15:55.869Z,86.80
2023-05-21T04:18:59.065Z,85.35
2023-05-21T04:22:03.203Z,85.37
2023-05-21T04:25:06.278Z,84.65
2023-05-21T04:28:11.482Z,82.94
2023-05-21T04:31:14.101Z,80.37
2023-05-21T04:34:19.988Z,83.14
2023-05-21T04:37:24.736Z,79.30
2023-05-21T04:40:27.149Z,76.30
2023-05-21T04:43:30.106Z,72.51
2023-05-21T04:46:35.033Z,71.83
2023-05-21T04:49:37.800Z,70.32
2023-05-21T04:52:42.467Z,70.47
2023-05-21T04:55:45.073Z,69.87
2023-05-21T04:58:48.008Z,69.57
2023-05-21T05:01:50.600Z,70.88
2023-05-21T05:04:53.047Z,69.39
2023-05-21T05:07:56.402Z,66.87
2023-05-21T05:10:58.774Z,65.40
2023-05-21T05:14:01.610Z,67.45
2023-05-21T05:17:05.781Z,66.87
2023-05-21T05:20:08.874Z,65.14
2023-05-21T05:23:11.434Z,64.37
2023-05-21T05:26:14.344Z,65.73
2023-05-21T05:29:16.829Z,66.89
2023-05-21T05:32:19.556Z,64.67
2023-05-21T05:35:22.058Z,64.33
2023-05-21T05:38:24.536Z,64.26
2023-05-21T05:41:27.217Z,64.04
2023-05-21T05:44:31.247Z,61.30
2023-05-21T05:47:34.045Z,59.80
2023-05-21T05:50:36.609Z,59.67
2023-05-21T05:53:39.116Z,61.34
2023-05-21T05:56:41.496Z,61.58
2023-05-21T05:59:46.935Z,57.46
2023-05-21T06:02:50.898Z,53.29
2023-05-21T06:05:53.472Z,52.38
2023-05-21T06:08:56.100Z,48.50
2023-05-21T06:11:59.436Z,46.20
2023-05-21T06:15:01.935Z,45.20
2023-05-21T06:18:05.169Z,42.87
2023-05-21T06:21:07.693Z,42.63
2023-05-21T06:24:10.983Z,40.35
2023-05-21T06:27:14.034Z,40.39
2023-05-21T06:30:17.048Z,40.82
2023-05-21T06:33:19.804Z,37.34
2023-05-21T06:36:22.306Z,39.28
2023-05-21T06:39:24.939Z,39.27
2023-05-21T06:42:27.410Z,36.22
2023-05-21T06:45:49.901Z,37.96
2023-05-21T06:49:14.065Z,37.59
2023-05-21T06:52:16.806Z,36.76
2023-05-21T06:55:20.020Z,36.98
2023-05-21T06:58:45.621Z,35.74
2023-05-21T07:01:48.135Z,38.07
2023-05-21T07:04:50.631Z,36.20
2023-05-21T07:07:53.026Z,33.54
2023-05-21T07:10:56.500Z,35.13
2023-05-21T07:14:03.929Z,35.41
2023-05-21T07:17:08.723Z,34.21
2023-05-21T07:20:12.681Z,33.72
2023-05-21T07:23:17.317Z,31.59
2023-05-21T07:26:21.623Z,31.04
2023-05-21T07:29:24.160Z,29.26
2023-05-21T07:32:29.261Z,29.95
2023-05-21T07:35:32.116Z,31.70
2023-05-21T07:38:34.730Z,30.93
2023-05-21T07:41:37.347Z,31.53
2023-05-21T07:44:43.083Z,30.91
2023-05-21T07:47:46.920Z,30.41
2023-05-21T07:50:52.546Z,27.79
2023-05-21T07:53:56.314Z,29.67
2023-05-21T07:57:06.021Z,27.64
2023-05-21T08:00:24.840Z,28.98
2023-05-21T08:03:30.950Z,30.22
2023-05-21T08:06:34.113Z,32.30
2023-05-21T08:09:36.839Z,28.68
2023-05-21T08:12:39.512Z,29.63
2023-05-21T08:15:43.112Z,30.11
2023-05-21T08:18:45.983Z,28.07
2023-05-21T08:21:49.267Z,29.67
2023-05-21T08:24:52.984Z,31.72
2023-05-21T08:27:56.099Z,26.61
2023-05-21T08:30:58.680Z,29.55
2023-05-21T08:34:01.311Z,27.44
2023-05-21T08:37:15.222Z,27.89
2023-05-21T08:40:50.434Z,27.92
2023-05-21T08:43:57.675Z,28.75
2023-05-21T08:47:02.903Z,30.66
2023-05-21T08:50:08.675Z,29.10
2023-05-21T08:53:19.833Z,29.33
2023-05-21T08:56:35.249Z,27.86
2023-05-21T08:59:40.145Z,28.34
2023-05-21T09:02:47.230Z,29.98
2023-05-21T09:05:55.187Z,26.94
2023-05-21T09:09:04.826Z,26.14
2023-05-21T09:12:20.047Z,27.27
2023-05-21T09:15:22.731Z,26.61
2023-05-21T09:18:27.592Z,27.38
2023-05-21T09:21:51.083Z,24.02
2023-05-21T09:24:55.701Z,27.51
2023-05-21T09:28:01.706Z,27.34
2023-05-21T09:31:04.364Z,29.95
2023-05-21T09:34:06.818Z,25.62
2023-05-21T09:37:23.715Z,26.59
2023-05-21T09:40:29.585Z,29.41
2023-05-21T09:43:32.303Z,23.53
2023-05-21T09:46:42.661Z,29.46
2023-05-21T09:49:45.668Z,28.07
2023-05-21T09:52:55.726Z,27.91
2023-05-21T09:55:58.376Z,25.20
2023-05-21T09:59:04.476Z,25.88
2023-05-21T10:02:24.026Z,27.37
2023-05-21T10:05:30.689Z,28.45
2023-05-21T10:08:36.762Z,28.06
2023-05-21T10:11:39.954Z,27.15
2023-05-21T10:14:46.923Z,28.45
2023-05-21T10:17:49.881Z,26.56
2023-05-21T10:20:53.262Z,25.54
2023-05-21T10:23:57.457Z,25.96
2023-05-21T10:27:01.877Z,26.56
2023-05-21T10:30:06.258Z,26.06
2023-05-21T10:33:09.322Z,27.50
2023-05-21T10:36:12.298Z,24.74
2023-05-21T10:39:19.866Z,25.79
2023-05-21T10:43:04.047Z,26.81
2023-05-21T10:46:34.546Z,27.89
2023-05-21T10:50:21.131Z,27.70
2023-05-21T10:53:51.122Z,27.44
2023-05-21T10:57:12.079Z,24.29
2023-05-21T11:00:18.302Z,25.93
2023-05-21T11:03:22.146Z,28.18
2023-05-21T11:06:28.144Z,23.33
2023-05-21T11:09:30.665Z,25.17
2023-05-21T11:12:34.968Z,26.74
2023-05-21T11:16:16.759Z,24.61
2023-05-21T11:19:19.469Z,23.92
2023-05-21T11:22:23.971Z,25.74
2023-05-21T11:25:27.541Z,28.04
2023-05-21T11:28:34.209Z,24.74
2023-05-21T11:31:40.319Z,27.75
2023-05-21T11:34:48.713Z,27.26
2023-05-21T11:37:54.108Z,24.62
2023-05-21T11:41:03.245Z,24.47
2023-05-21T11:44:08.825Z,26.52
2023-05-21T11:47:15.796Z,25.63
2023-05-21T11:50:18.636Z,25.79
2023-05-21T11:53:21.089Z,26.58
2023-05-21T11:56:24.500Z,27.27
2023-05-21T11:59:26.867Z,28.05
2023-05-21T12:02:32.823Z,25.84
2023-05-21T12:05:46.492Z,26.39
2023-05-21T12:08:52.526Z,22.04
2023-05-21T12:11:55.101Z,26.12
2023-05-21T12:14:58.413Z,27.28
2023-05-21T12:18:01.337Z,24.50
2023-05-21T12:21:04.930Z,23.78
2023-05-21T12:24:07.311Z,27.44
2023-05-21T12:27:13.299Z,23.75
2023-05-21T12:30:15.919Z,28.75
2023-05-21T12:33:18.884Z,28.38
2023-05-21T12:36:31.930Z,24.94
2023-05-21T12:39:41.685Z,24.87
2023-05-21T12:42:44.610Z,25.59
2023-05-21T12:45:47.193Z,25.55
2023-05-21T12:48:58.388Z,27.14
2023-05-21T12:52:03.110Z,26.03
2023-05-21T12:55:07.134Z,26.52
2023-05-21T12:58:14.160Z,23.38
2023-05-21T13:01:16.569Z,27.33
2023-05-21T13:04:20.264Z,27.01
2023-05-21T13:07:23.161Z,26.05
2023-05-21T13:10:25.553Z,25.07
2023-05-21T13:13:27.966Z,25.64
2023-05-21T13:16:30.569Z,26.72
2023-05-21T13:19:33.070Z,25.55
2023-05-21T13:22:43.674Z,28.25
2023-05-21T13:25:46.124Z,27.38
2023-05-21T13:28:48.494Z,28.84
2023-05-21T13:31:50.946Z,31.22
2023-05-21T13:34:53.475Z,32.10
2023-05-21T13:37:55.869Z,32.70
2023-05-21T13:40:58.305Z,31.06
2023-05-21T13:44:00.957Z,29.38
2023-05-21T13:47:04.205Z,28.99
2023-05-21T13:50:07.394Z,33.61
2023-05-21T13:53:09.867Z,32.62
2023-05-21T13:56:12.585Z,28.61
2023-05-21T13:59:15.007Z,31.42
2023-05-21T14:02:17.550Z,31.56
2023-05-21T14:05:20.066Z,31.68
2023-05-21T14:08:23.677Z,32.58
2023-05-21T14:11:27.544Z,35.07
2023-05-21T14:14:30.048Z,34.60
2023-05-21T14:17:32.501Z,37.36
2023-05-21T14:20:34.930Z,33.97
2023-05-21T14:23:37.330Z,35.30
2023-05-21T14:26:42.635Z,31.93
2023-05-21T14:29:45.051Z,36.02
2023-05-21T14:32:47.449Z,35.81
2023-05-21T14:35:49.869Z,37.46
2023-05-21T14:38:52.274Z,36.50
2023-05-21T14:41:54.804Z,38.14
2023-05-21T14:44:58.885Z,38.59
2023-05-21T14:48:08.308Z,35.28
2023-05-21T14:51:10.838Z,37.43
2023-05-21T14:54:13.778Z,38.25
2023-05-21T14:57:16.185Z,36.26
2023-05-21T15:00:18.736Z,35.80
2023-05-21T15:03:21.275Z,35.17
2023-05-21T15:06:24.822Z,33.38
2023-05-21T15:09:27.246Z,35.95
2023-05-21T15:12:29.658Z,36.08
2023-05-21T15:15:32.079Z,35.99
2023-05-21T15:18:34.494Z,36.55
2023-05-21T15:21:37.053Z,37.57
2023-05-21T15:24:39.419Z,36.16
2023-05-21T15:27:41.889Z,39.08
2023-05-21T15:30:44.282Z,39.16
2023-05-21T15:33:46.729Z,38.24
2023-05-21T15:36:49.104Z,34.92
2023-05-21T15:39:53.330Z,39.19
2023-05-21T15:42:55.874Z,36.55
2023-05-21T15:45:58.484Z,36.64
2023-05-21T15:49:00.866Z,35.71
2023-05-21T15:52:03.345Z,37.38
2023-05-21T15:55:06.046Z,38.31
2023-05-21T15:58:08.549Z,36.24
2023-05-21T16:01:11.009Z,36.89
2023-05-21T16:04:13.622Z,36.46
2023-05-21T16:07:16.035Z,37.31
2023-05-21T16:10:18.595Z,37.09
2023-05-21T16:13:21.199Z,39.17
2023-05-21T16:16:24.873Z,37.54
2023-05-21T16:19:27.443Z,38.89
2023-05-21T16:22:32.487Z,37.89
2023-05-21T16:25:38.232Z,39.03
2023-05-21T16:28:43.837Z,38.78
2023-05-21T16:31:47.515Z,42.57
2023-05-21T16:34:49.995Z,43.74
2023-05-21T16:37:52.486Z,43.13
2023-05-21T16:40:54.934Z,42.15
2023-05-21T16:43:57.299Z,40.04
2023-05-21T16:47:00.429Z,42.49
2023-05-21T16:50:05.925Z,45.96
2023-05-21T16:53:09.844Z,43.09
2023-05-21T16:56:12.257Z,44.85
2023-05-21T16:59:14.669Z,46.14
2023-05-21T17:02:17.170Z,49.27
2023-05-21T17:05:20.921Z,46.18
2023-05-21T17:08:23.300Z,48.27
2023-05-21T17:11:25.786Z,48.75
2023-05-21T17:14:34.326Z,46.04
2023-05-21T17:17:37.837Z,45.33
2023-05-21T17:20:40.448Z,43.00
2023-05-21T17:23:42.981Z,43.24
2023-05-21T17:26:45.399Z,42.93
2023-05-21T17:29:47.776Z,43.42
2023-05-21T17:32:50.148Z,41.49
2023-05-21T17:35:52.562Z,41.35
2023-05-21T17:38:55.113Z,42.65
2023-05-21T17:41:57.791Z,42.46
2023-05-21T17:45:01.437Z,41.12
2023-05-21T17:48:04.217Z,42.40
2023-05-21T17:51:06.754Z,39.99
2023-05-21T17:54:09.478Z,39.57
2023-05-21T17:57:12.148Z,40.46
2023-05-21T18:00:14.892Z,40.41
2023-05-21T18:03:17.219Z,40.29
2023-05-21T18:06:19.715Z,40.77
2023-05-21T18:09:22.252Z,42.46
2023-05-21T18:12:24.788Z,41.89
2023-05-21T18:15:27.260Z,41.81
2023-05-21T18:18:29.692Z,42.71
2023-05-21T18:21:34.647Z,42.91
2023-05-21T18:24:38.171Z,41.88
2023-05-21T18:27:40.782Z,41.08
2023-05-21T18:30:43.182Z,41.31
2023-05-21T18:33:45.630Z,40.94
2023-05-21T18:36:48.311Z,41.71
2023-05-21T18:39:51.006Z,41.49
2023-05-21T18:42:53.823Z,41.78
2023-05-21T18:45:56.278Z,41.87
2023-05-21T18:49:01.561Z,41.85
2023-05-21T18:52:06.169Z,41.30
2023-05-21T18:55:09.255Z,41.39
2023-05-21T18:58:11.638Z,42.06
2023-05-21T19:01:14.110Z,42.19
2023-05-21T19:04:17.652Z,41.57
2023-05-21T19:07:20.063Z,42.46
2023-05-21T19:10:22.558Z,42.83
2023-05-21T19:13:25.131Z,42.46
2023-05-21T19:16:27.907Z,42.05
2023-05-21T19:19:30.484Z,43.40
2023-05-21T19:22:33.093Z,43.43
2023-05-21T19:25:35.723Z,42.47
2023-05-21T19:28:38.251Z,42.02
2023-05-21T19:31:40.925Z,42.42
2023-05-21T19:34:43.443Z,42.04
2023-05-21T19:37:45.833Z,42.06
2023-05-21T19:40:49.098Z,41.98
2023-05-21T19:43:51.544Z,42.21
2023-05-21T19:46:54.633Z,41.62
2023-05-21T19:49:57.050Z,41.64
2023-05-21T19:52:59.491Z,41.64
2023-05-21T19:56:01.945Z,41.70
2023-05-21T19:59:04.415Z,40.77
2023-05-21T20:02:07.201Z,41.97
2023-05-21T20:05:09.987Z,42.05
2023-05-21T20:08:12.760Z,42.61
2023-05-21T20:11:15.590Z,43.07
2023-05-21T20:14:18.021Z,43.46
2023-05-21T20:17:20.806Z,43.33
2023-05-21T20:20:23.223Z,44.84
2023-05-21T20:23:25.707Z,43.65
2023-05-21T20:26:28.136Z,43.35
2023-05-21T20:29:30.578Z,44.97
2023-05-21T20:32:32.980Z,43.88
2023-05-21T20:35:35.506Z,43.64
2023-05-21T20:38:38.327Z,42.74
2023-05-21T20:41:44.653Z,41.90
2023-05-21T20:44:47.247Z,42.21
2023-05-21T20:47:49.963Z,43.26
2023-05-21T20:50:52.902Z,42.75
2023-05-21T20:53:55.614Z,44.27
2023-05-21T20:56:59.594Z,43.96
2023-05-21T21:00:02.035Z,45.82
2023-05-21T21:03:05.194Z,45.20
2023-05-21T21:06:09.798Z,46.03
2023-05-21T21:09:12.611Z,44.58
2023-05-21T21:12:25.954Z,44.97
2023-05-21T21:15:29.146Z,45.45
2023-05-21T21:18:31.554Z,45.84
2023-05-21T21:21:33.983Z,46.42
2023-05-21T21:24:36.358Z,45.73
2023-05-21T21:27:38.787Z,45.00
2023-05-21T21:30:41.372Z,45.82
2023-05-21T21:33:43.938Z,45.63
2023-05-21T21:36:46.689Z,46.00
2023-05-21T21:39:49.108Z,46.17
2023-05-21T21:42:51.485Z,46.48
2023-05-21T21:45:53.968Z,46.95
2023-05-21T21:48:56.486Z,47.10
2023-05-21T21:51:58.964Z,47.47
2023-05-21T21:55:01.310Z,46.79
2023-05-21T21:58:03.803Z,49.70
2023-05-21T22:01:06.400Z,50.23
2023-05-21T22:04:09.025Z,52.84
2023-05-21T22:07:18.087Z,53.63
2023-05-21T22:10:21.341Z,53.57
2023-05-21T22:13:24.591Z,52.78
2023-05-21T22:16:28.345Z,52.35
2023-05-21T22:19:32.815Z,52.67
2023-05-21T22:22:35.422Z,52.23
2023-05-21T22:25:37.920Z,53.54
2023-05-21T22:28:40.436Z,53.19
2023-05-21T22:31:42.857Z,52.96
2023-05-21T22:34:45.288Z,52.98
2023-05-21T22:37:47.774Z,53.58
2023-05-21T22:40:50.382Z,53.34
2023-05-21T22:43:52.798Z,53.31
2023-05-21T22:46:56.600Z,52.97
2023-05-21T22:50:01.455Z,53.18
2023-05-21T22:53:04.047Z,53.84
2023-05-21T22:56:06.863Z,52.39
2023-05-21T22:59:09.279Z,54.44
2023-05-21T23:02:12.687Z,52.88
2023-05-21T23:05:15.486Z,53.19
2023-05-21T23:08:17.908Z,52.98
2023-05-21T23:11:20.946Z,53.19
2023-05-21T23:14:23.355Z,53.00
2023-05-21T23:17:25.855Z,52.28
2023-05-21T23:20:28.237Z,53.19
2023-05-21T23:23:30.659Z,53.91
2023-05-21T23:26:33.449Z,53.98
2023-05-21T23:29:36.103Z,52.87
2023-05-21T23:32:38.833Z,51.06
2023-05-21T23:35:41.292Z,53.77
2023-05-21T23:38:43.963Z,53.93
2023-05-21T23:41:46.372Z,55.67
2023-05-21T23:44:48.735Z,58.77
2023-05-21T23:47:52.042Z,60.12
2023-05-21T23:50:54.742Z,58.60
2023-05-21T23:53:57.161Z,62.57
2023-05-21T23:56:59.624Z,61.53
